Home > Products > Valid Products > TAF

000
FTUS43 KSGF 252300
TAFJLN
TAF
KJLN 252323Z 2600/2624 18007KT P6SM SKC
     FM260500 17008KT P6SM BKN120 OVC200
     FM261000 21009KT P6SM BKN050 OVC100
     FM261500 29016G27KT P6SM SCT040
     FM262300 30012KT P6SM SKC=



000
FTUS43 KSGF 252300
TAFSGF
TAF
KSGF 252323Z 2600/2624 VRB05KT P6SM SKC
     FM260500 17008KT P6SM BKN120 OVC200
     FM261200 21009KT P6SM VCSH BKN045 OVC100
      TEMPO 2612/2616 4SM -RASN OVC035
     FM261600 29015G26KT P6SM BKN030
     FM262300 30012KT P6SM SCT040=



000
FTUS43 KSGF 251700
TAFSGF
TAF
KSGF 251720Z 2518/2618 29006KT P6SM SKC
     FM252200 25007KT P6SM SKC
     FM260000 18006KT P6SM FEW200
     FM260900 18012KT P6SM BKN100
     FM261500 27014G20KT P6SM BKN250=



000
FTUS43 KSGF 251700
TAFJLN
TAF
KJLN 251720Z 2518/2618 30006KT P6SM SKC
     FM252100 23007KT P6SM SKC
     FM260000 18008KT P6SM FEW200
     FM260900 19012KT P6SM OVC100 WS020/23040KT
     FM261500 29015G22KT P6SM SCT200=



000
FTUS43 KSGF 251100
TAFSGF
TAF
KSGF 251124Z 2512/2612 31006KT P6SM SKC
     FM251900 24008KT P6SM SKC
     FM260000 18006KT P6SM SCT200
     FM260900 18012KT P6SM BKN100=



000
FTUS43 KSGF 251100
TAFJLN
TAF
KJLN 251124Z 2512/2612 31006KT P6SM SKC
     FM251900 23007KT P6SM SKC
     FM260000 18008KT P6SM SCT200
     FM260900 19012KT P6SM OVC100 WS020/23040KT=



000
FTUS43 KSGF 250500
TAFJLN
TAF
KJLN 250523Z 2506/2606 28006KT P6SM SKC
     FM251900 23007KT P6SM SKC
     FM260000 18008KT P6SM SCT200=



000
FTUS43 KSGF 250500
TAFSGF
TAF
KSGF 250523Z 2506/2606 29005KT P6SM SKC
     FM251900 24007KT P6SM SKC
     FM260000 18007KT P6SM SCT200=



000
FTUS43 KSGF 242300
TAFJLN
TAF
KJLN 242320Z 2500/2524 28007KT P6SM SKC
     FM251800 23007KT P6SM SKC=



000
FTUS43 KSGF 242300
TAFSGF
TAF
KSGF 242320Z 2500/2524 29007KT P6SM SKC
     FM251900 24007KT P6SM SKC=



000
FTUS43 KSGF 241700
TAFSGF
TAF
KSGF 241720Z 2418/2518 26015G25KT P6SM SCT040
      TEMPO 2419/2422 BKN035
     FM250100 29010KT P6SM SCT040
     FM250300 29007KT P6SM SKC=



000
FTUS43 KSGF 241700
TAFJLN
TAF
KJLN 241720Z 2418/2518 27015G25KT P6SM FEW040
     FM241900 29014G24KT P6SM SCT040
      TEMPO 2421/2423 BKN035
     FM250200 28005KT P6SM SKC=



000
FTUS43 KSGF 241600 AAC
TAFSGF
TAF AMD
KSGF 241618Z 2416/2512 28017G27KT P6SM SKC
     FM241800 30015G25KT P6SM SCT035
      TEMPO 2419/2422 BKN030
     FM250100 29010KT P6SM SCT040
     FM250300 29007KT P6SM SKC=



000
FTUS43 KSGF 241600 AAC
TAFSGF
TAF AMD
KSGF 241618Z 2416/2512 28017G27KT P6SM SKC
     FM241800 30015G25KT P6SM SCT035
      TEMPO 2419/2422 BKN030
     FM250100 29010KT P6SM SCT040
     FM250300 29007KT P6SM SKC=



000
FTUS43 KSGF 241600 AAB
TAFJLN
TAF AMD
KJLN 241615Z 2416/2512 27013G23KT P6SM SKC
     FM241900 29014G24KT P6SM SCT040
      TEMPO 2421/2423 BKN030
     FM250200 28005KT P6SM SKC=



000
FTUS43 KSGF 241500 AAB
TAFSGF
TAF AMD
KSGF 241532Z 2416/2512 26015G25KT P6SM SKC
     FM242300 29007KT P6SM SKC=



000
FTUS43 KSGF 241400 AAA
TAFJLN
TAF AMD
KJLN 241418Z 2414/2512 23010KT P6SM SKC
     FM241600 27017G27KT P6SM SCT035
     FM242300 28005KT P6SM SKC=



000
FTUS43 KSGF 241400 AAA
TAFSGF
TAF AMD
KSGF 241416Z 2414/2512 26012KT P6SM SKC
     FM241600 27018G28KT P6SM SCT035
     FM242300 29007KT P6SM SKC=



000
FTUS43 KSGF 241100
TAFSGF
TAF
KSGF 241125Z 2412/2512 28015G22KT P6SM SKC
     FM241600 27018G28KT P6SM SCT035
     FM242300 29007KT P6SM SKC=



000
FTUS43 KSGF 241100
TAFJLN
TAF
KJLN 241125Z 2412/2512 27012G17KT P6SM SKC
     FM241600 27017G27KT P6SM SCT035
     FM242300 28005KT P6SM SKC=



000
FTUS43 KSGF 241000 AAB
TAFJLN
TAF AMD
KJLN 241037Z 2411/2506 28014G21KT P6SM SKC
     FM241600 27018G27KT P6SM SCT035
     FM242300 28008KT P6SM SKC=



000
FTUS43 KSGF 241000 AAA
TAFSGF
TAF AMD
KSGF 241034Z 2411/2506 28014G22KT P6SM SKC
     FM241600 27018G28KT P6SM SCT035
     FM242300 28008KT P6SM SKC=



000
FTUS43 KSGF 240700 AAA
TAFJLN
TAF AMD
KJLN 240728Z 2407/2506 29013G19KT P6SM BKN120
     FM241500 27019G29KT P6SM SCT035
     FM242300 28008KT P6SM SKC=



000
FTUS43 KSGF 240700 AAA
TAFSGF
TAF AMD
KSGF 240726Z 2407/2506 30014G20KT P6SM -RA SCT020 OVC060
     FM240900 29012G17KT P6SM SCT025 OVC120
     FM241500 27018G28KT P6SM SCT035
     FM242300 28008KT P6SM SKC=



000
FTUS43 KSGF 240500
TAFSGF
TAF
KSGF 240520Z 2406/2506 31019G29KT 5SM -RA BR BKN008 OVC015
      TEMPO 2406/2409 P6SM -RA SCT008 OVC015
     FM240900 30016G25KT P6SM BKN015 OVC120
     FM241100 28014G23KT P6SM BKN120
     FM241500 27018G28KT P6SM SCT035
     FM242300 28008KT P6SM SKC=



000
FTUS43 KSGF 240500
TAFJLN
TAF
KJLN 240520Z 2406/2506 31016G25KT P6SM -RA BKN015 OVC120
     FM240800 28013G22KT P6SM BKN120
     FM241500 27019G29KT P6SM FEW035
     FM242300 28008KT P6SM SKC=



000
FTUS43 KSGF 240200 AAA
TAFSGF
TAF AMD
KSGF 240208Z 2402/2424 23011KT 5SM -SHRA BR VCTS SCT007 OVC015CB
     FM240230 34020G35KT 5SM -RADZ BR OVC010
     FM240800 32020G32KT 3SM -RASN BR OVC006
     FM241100 32018G25KT P6SM OVC007
     FM241500 29018G25KT P6SM OVC015
     FM241900 27016G22KT P6SM SCT035=



000
FTUS43 KSGF 240100 AAC
TAFJLN
TAF AMD
KJLN 240105Z 2401/2424 33022G35KT 5SM -RA BR OVC009
     FM240400 32022G30KT 3SM -RASN OVC010
     FM240900 28018G28KT P6SM OVC015
     FM241500 27018G28KT P6SM SCT015
     FM241700 27018G25KT P6SM SCT035
     FM242300 27012KT P6SM SKC=



000
FTUS43 KSGF 240000 AAB
TAFJLN
TAF AMD
KJLN 240059Z 2401/2424 31011KT 5SM -SHRA BR SCT007 OVC020
     FM240200 33022G35KT 5SM -RA BR OVC009
     FM240400 32022G30KT 3SM -RASN OVC010
     FM240900 28018G28KT P6SM OVC015
     FM241500 27018G28KT P6SM SCT015
     FM241700 27018G25KT P6SM SCT035
     FM242300 27012KT P6SM SKC=



000
FTUS43 KSGF 240000 AAA
TAFJLN
TAF AMD
KJLN 240023Z 2400/2424 31011KT 5SM -SHRA BR SCT007 OVC020
     FM240100 33022G35KT 5SM -RA BR OVC009
     FM240400 32022G30KT 3SM -RASN OVC010
     FM240900 28018G28KT P6SM OVC015
     FM241500 27018G28KT P6SM SCT015
     FM241700 27018G25KT P6SM SCT035
     FM242300 27012KT P6SM SKC=



000
FTUS43 KSGF 240000 AAA
TAFSGF
TAF AMD
KSGF 240019Z 2400/2424 23011KT 5SM -SHRA BR VCTS SCT007 OVC015CB
      TEMPO 2400/2402 2SM TSRA BR BKN007 OVC015CB
     FM240300 31020G35KT 5SM -RADZ BR OVC009
     FM240800 30020G32KT 3SM -RASN BR OVC006
     FM241100 30018G25KT P6SM OVC007
     FM241500 29018G25KT P6SM OVC015
     FM241900 27016G22KT P6SM SCT035=



000
FTUS43 KSGF 232300
TAFSGF
TAF
KSGF 232329Z 2400/2424 23011KT 5SM -SHRA BR VCTS SCT007 OVC015CB
      TEMPO 2400/2401 2SM -TSRA
     FM240300 31020G35KT 5SM -RADZ BR OVC009
     FM240800 30020G32KT 3SM -RASN BR OVC006
     FM241100 30018G25KT P6SM OVC007
     FM241500 29018G25KT P6SM OVC015
     FM241900 27016G22KT P6SM SCT035=



000
FTUS43 KSGF 232300
TAFJLN
TAF
KJLN 232329Z 2400/2424 24011KT 5SM -SHRA BR SCT007 OVC020
     FM240100 30022G35KT 5SM -RA BR OVC009
     FM240400 30022G30KT 3SM -RASN OVC010
     FM240900 28018G28KT P6SM OVC015
     FM241500 27018G28KT P6SM SCT015
     FM241700 27018G25KT P6SM SCT035
     FM242300 27012KT P6SM SKC=



000
FTUS43 KSGF 232100 AAB
TAFJLN
TAF AMD
KJLN 232149Z 2322/2418 24011KT 5SM -SHRA BR VCTS SCT007 OVC015CB
      TEMPO 2322/2323 4SM -TSRA
     FM240100 30022G33KT 5SM -RA BR OVC008
     FM240400 30022G30KT 3SM -RA OVC009
     FM240900 28018G28KT P6SM OVC015
     FM241500 27018G28KT P6SM SCT015=



000
FTUS43 KSGF 231900 AAA
TAFJLN
TAF AMD
KJLN 231947Z 2320/2418 20008KT P6SM OVC025
     FM232200 24011KT 5SM -SHRA BR VCTS SCT007 OVC015CB
     FM240100 30022G33KT 5SM -RA BR OVC008
     FM240400 30022G30KT 3SM -RA OVC009 PROB30 2406/2409 -SHSN
      OVC007
     FM240900 28018G28KT P6SM OVC015
     FM241500 27018G28KT P6SM SCT015=



000
FTUS43 KSGF 231900 AAA
TAFJLN
TAF AMD
KJLN 231947Z 2320/2418 20008KT P6SM OVC025
     FM232200 24011KT 5SM -SHRA BR VCTS SCT007 OVC015CB
     FM240100 30022G33KT 5SM -RA BR OVC008
     FM240400 30022G30KT 3SM -RA OVC009 PROB30 2406/2409 -SHSN
      OVC007
     FM240900 28018G28KT P6SM OVC015
     FM241500 27018G28KT P6SM SCT015=



000
FTUS43 KSGF 231900 AAA
TAFSGF
TAF AMD
KSGF 231946Z 2320/2418 16008KT P6SM OVC012
     FM240000 23011KT 4SM -SHRA BR VCTS SCT007 OVC015CB
     FM240300 31020G30KT 3SM -RADZ BR OVC006
     FM240800 30020G30KT 4SM -RASN BR OVC006
     FM241100 30018G25KT P6SM OVC007
     FM241500 29018G25KT P6SM OVC012=



000
FTUS43 KSGF 231900 AAA
TAFSGF
TAF AMD
KSGF 231946Z 2320/2418 16008KT P6SM OVC012
     FM240000 23011KT 4SM -SHRA BR VCTS SCT007 OVC015CB
     FM240300 31020G30KT 3SM -RADZ BR OVC006
     FM240800 30020G30KT 4SM -RASN BR OVC006
     FM241100 30018G25KT P6SM OVC007
     FM241500 29018G25KT P6SM OVC012=



000
FTUS43 KSGF 231700
TAFJLN
TAF
KJLN 231726Z 2318/2418 20008KT P6SM -DZ BKN015 OVC030
      TEMPO 2318/2321 SCT015 OVC030
     FM232200 24011KT 5SM -SHRA BR VCTS SCT007 OVC015CB
     FM240100 30022G33KT 5SM -RA BR OVC008
     FM240400 30022G30KT 3SM -RA OVC009 PROB30 2406/2409 -SHSN
      OVC007
     FM240900 28018G28KT P6SM OVC015
     FM241500 27018G28KT P6SM SCT015=



000
FTUS43 KSGF 231700
TAFSGF
TAF
KSGF 231726Z 2318/2418 16011KT 4SM -DZ BR OVC005
      TEMPO 2318/2321 6SM BR OVC012
     FM232100 19010KT P6SM -DZ SCT007 OVC015
     FM240000 23011KT 4SM -SHRA BR VCTS SCT007 OVC015CB
     FM240300 31020G30KT 3SM -RADZ BR OVC006
     FM240800 30020G30KT 4SM -RASN BR OVC006
     FM241100 30018G25KT P6SM OVC007
     FM241500 29018G25KT P6SM OVC012=



000
FTUS43 KSGF 231300 AAA
TAFSGF
TAF AMD
KSGF 231342Z 2314/2412 15015KT P6SM -RADZ SCT008 OVC012
      WS020/19045KT
      TEMPO 2314/2317 BKN008 OVC012
     FM231700 18011KT P6SM -RADZ OVC012
     FM240000 22011KT 3SM -RA BR VCTS OVC015CB
     FM240300 29020G30KT 3SM -RADZ BR OVC006
     FM240600 29020G30KT 4SM -RASN BR OVC008
     FM240800 29018G25KT P6SM -DZ OVC012=



000
FTUS43 KSGF 231100
TAFSGF
TAF
KSGF 231133Z 2312/2412 15015KT P6SM -RA SCT008 OVC012 WS020/19045KT
      TEMPO 2312/2316 4SM SHRA BR BKN008 OVC012
     FM231600 18011KT 6SM -DZ BR OVC012
     FM240000 22011KT 3SM -RA BR VCTS OVC015CB
     FM240300 29020G30KT 3SM -RADZ BR OVC006
     FM240600 29020G30KT 4SM -RASN BR OVC008
     FM240800 29018G25KT P6SM -DZ OVC012=



000
FTUS43 KSGF 231100
TAFJLN
TAF
KJLN 231133Z 2312/2412 16011KT P6SM SCT010 OVC020 WS020/19045KT
     FM231300 18012KT 6SM -DZ BR BKN008 OVC012
     FM231600 19011KT 6SM -DZ OVC012
     FM232200 22011KT 5SM -RA BR VCTS OVC015CB
     FM240100 29022G32KT 5SM -RA BR OVC008
     FM240400 29022G32KT 3SM -RASN OVC012
     FM240700 29018G28KT P6SM OVC015=



000
FTUS43 KSGF 231000 AAB
TAFSGF
TAF AMD
KSGF 231026Z 2310/2406 15014KT P6SM -RA OVC012 WS020/19045KT
      TEMPO 2310/2314 3SM SHRA BR BKN008 OVC015
     FM231600 19011KT 5SM -DZ OVC012
     FM240000 22011KT 5SM -RA BR VCTS OVC015CB
     FM240300 29020G31KT 5SM -RA BR OVC010=



000
FTUS43 KSGF 230800 AAA
TAFSGF
TAF AMD
KSGF 230858Z 2309/2406 15014KT P6SM OVC012 WS020/19045KT
     FM231100 15016G21KT 5SM -RA BR VCTS OVC015CB
      TEMPO 2312/2316 3SM RA BR BKN008 OVC015
     FM231800 19011KT 5SM -DZ OVC012
     FM240000 22011KT 5SM -RA BR VCTS OVC015CB
     FM240300 29020G31KT 5SM -RA BR OVC010=



000
FTUS43 KSGF 230800 AAA
TAFJLN
TAF AMD
KJLN 230807Z 2308/2406 16011KT P6SM OVC015 WS020/19045KT
     FM231100 15011KT 5SM -RA BR VCTS OVC015CB
      TEMPO 2312/2316 3SM RA BR BKN008 OVC015
     FM231600 19011KT 5SM -DZ OVC012
     FM232200 22011KT 5SM -RA BR VCTS OVC015CB
     FM240100 29020G31KT 5SM -RA BR OVC010
     FM240400 29022G33KT 3SM -RASN OVC010=



000
FTUS43 KSGF 230500
TAFJLN
TAF
KJLN 230537Z 2306/2406 16011KT P6SM BKN200 WS020/19045KT
     FM230900 16011KT P6SM VCSH BKN025 OVC200 WS020/19045KT
     FM231100 15011KT 5SM -RA BR VCTS OVC015CB
      TEMPO 2312/2316 3SM RA BR BKN008 OVC015
     FM231600 19011KT 5SM -DZ OVC012
     FM232200 22011KT 5SM -RA BR VCTS OVC015CB
     FM240100 29020G31KT 5SM -RA BR OVC010
     FM240400 29022G33KT 3SM -RASN OVC010=



000
FTUS43 KSGF 230500
TAFSGF
TAF
KSGF 230537Z 2306/2406 15014KT P6SM FEW015 BKN200 WS020/19045KT
     FM230900 15015KT P6SM VCSH BKN025 OVC200 WS020/19045KT
     FM231100 15016G21KT 5SM -RA BR VCTS OVC015CB
      TEMPO 2312/2316 3SM RA BR BKN008 OVC015
     FM231800 19011KT 5SM -DZ OVC012
     FM240000 22011KT 5SM -RA BR VCTS OVC015CB
     FM240300 29020G31KT 5SM -RA BR OVC010=



    US Dept of Commerce
    National Oceanic and Atmospheric Administration
    National Weather Service
    1325 East West Highway
    Silver Spring, MD 20910
    Page Author: NWS Internet Services Team
Disclaimer
Information Quality
Credits
Glossary
Privacy Policy
Freedom of Information Act (FOIA)
About Us
Career Opportunities